sensor_id;sensor_type;location;lat;lon;timestamp;pressure;altitude;pressure_sealevel;temperature;humidity
2841;BME280;53423;49.224;12.074;2023-02-28T00:01:32;98612.25;;;-0.95;64.66
2841;BME280;53423;49.224;12.074;2023-02-28T00:04:02;98606.63;;;-0.85;64.52
2841;BME280;53423;49.224;12.074;2023-02-28T00:06:30;98600.97;;;-0.74;63.81
2841;BME280;53423;49.224;12.074;2023-02-28T00:08:58;98603.41;;;-0.90;64.66
2841;BME280;53423;49.224;12.074;2023-02-28T00:11:26;98603.50;;;-0.91;64.60
2841;BME280;53423;49.224;12.074;2023-02-28T00:13:54;98593.63;;;-1.00;64.23
2841;BME280;53423;49.224;12.074;2023-02-28T00:16:22;98596.03;;;-0.97;64.75
2841;BME280;53423;49.224;12.074;2023-02-28T00:18:50;98598.19;;;-0.88;64.21
2841;BME280;53423;49.224;12.074;2023-02-28T00:21:20;98599.91;;;-1.06;64.61
2841;BME280;53423;49.224;12.074;2023-02-28T00:23:48;98602.81;;;-1.13;64.65
2841;BME280;53423;49.224;12.074;2023-02-28T00:26:16;98598.00;;;-1.02;64.53
2841;BME280;53423;49.224;12.074;2023-02-28T00:28:47;98603.91;;;-1.00;64.28
2841;BME280;53423;49.224;12.074;2023-02-28T00:31:15;98603.72;;;-1.14;64.79
2841;BME280;53423;49.224;12.074;2023-02-28T00:33:43;98596.19;;;-1.19;64.99
2841;BME280;53423;49.224;12.074;2023-02-28T00:36:11;98593.28;;;-1.11;64.71
2841;BME280;53423;49.224;12.074;2023-02-28T00:38:40;98595.47;;;-1.21;65.35
2841;BME280;53423;49.224;12.074;2023-02-28T00:41:08;98594.63;;;-1.03;64.69
2841;BME280;53423;49.224;12.074;2023-02-28T00:43:38;98603.66;;;-0.94;64.48
2841;BME280;53423;49.224;12.074;2023-02-28T00:46:07;98602.47;;;-1.06;64.46
2841;BME280;53423;49.224;12.074;2023-02-28T00:48:35;98590.44;;;-1.05;64.49
2841;BME280;53423;49.224;12.074;2023-02-28T00:51:03;98587.72;;;-1.02;63.78
2841;BME280;53423;49.224;12.074;2023-02-28T00:53:32;98585.28;;;-1.05;64.38
2841;BME280;53423;49.224;12.074;2023-02-28T00:56:02;98581.53;;;-1.17;64.80
2841;BME280;53423;49.224;12.074;2023-02-28T00:58:30;98582.53;;;-1.01;64.14
2841;BME280;53423;49.224;12.074;2023-02-28T01:00:58;98581.91;;;-1.06;64.32
2841;BME280;53423;49.224;12.074;2023-02-28T01:03:26;98580.84;;;-1.02;64.47
2841;BME280;53423;49.224;12.074;2023-02-28T01:05:54;98575.84;;;-1.05;64.33
2841;BME280;53423;49.224;12.074;2023-02-28T01:08:22;98573.88;;;-1.00;64.15
2841;BME280;53423;49.224;12.074;2023-02-28T01:10:50;98570.56;;;-1.20;64.69
2841;BME280;53423;49.224;12.074;2023-02-28T01:13:20;98571.69;;;-1.45;65.64
2841;BME280;53423;49.224;12.074;2023-02-28T01:15:51;98569.13;;;-1.26;65.40
2841;BME280;53423;49.224;12.074;2023-02-28T01:18:21;98564.72;;;-1.05;64.60
2841;BME280;53423;49.224;12.074;2023-02-28T01:20:49;98566.56;;;-1.26;64.92
2841;BME280;53423;49.224;12.074;2023-02-28T01:23:18;98562.44;;;-1.30;65.60
2841;BME280;53423;49.224;12.074;2023-02-28T01:25:48;98559.72;;;-1.46;65.77
2841;BME280;53423;49.224;12.074;2023-02-28T01:28:16;98559.31;;;-1.55;66.06
2841;BME280;53423;49.224;12.074;2023-02-28T01:30:49;98557.38;;;-1.32;65.51
2841;BME280;53423;49.224;12.074;2023-02-28T01:33:17;98559.47;;;-1.21;65.23
2841;BME280;53423;49.224;12.074;2023-02-28T01:35:45;98556.28;;;-1.26;65.21
2841;BME280;53423;49.224;12.074;2023-02-28T01:38:13;98556.94;;;-1.41;65.63
2841;BME280;53423;49.224;12.074;2023-02-28T01:40:49;98556.19;;;-1.24;65.40
2841;BME280;53423;49.224;12.074;2023-02-28T01:43:21;98554.25;;;-0.84;63.51
2841;BME280;53423;49.224;12.074;2023-02-28T01:45:51;98561.44;;;-1.09;64.14
2841;BME280;53423;49.224;12.074;2023-02-28T01:48:21;98565.97;;;-1.33;65.47
2841;BME280;53423;49.224;12.074;2023-02-28T01:50:50;98563.75;;;-1.40;65.78
2841;BME280;53423;49.224;12.074;2023-02-28T01:53:23;98565.78;;;-1.28;64.97
2841;BME280;53423;49.224;12.074;2023-02-28T01:55:53;98557.09;;;-1.44;65.37
2841;BME280;53423;49.224;12.074;2023-02-28T01:58:22;98566.66;;;-1.48;65.79
2841;BME280;53423;49.224;12.074;2023-02-28T02:00:51;98560.50;;;-1.44;65.61
2841;BME280;53423;49.224;12.074;2023-02-28T02:03:20;98553.34;;;-1.37;65.09
2841;BME280;53423;49.224;12.074;2023-02-28T02:05:48;98551.47;;;-1.34;64.96
2841;BME280;53423;49.224;12.074;2023-02-28T02:08:18;98538.94;;;-1.23;64.54
2841;BME280;53423;49.224;12.074;2023-02-28T02:10:49;98535.38;;;-1.01;64.08
2841;BME280;53423;49.224;12.074;2023-02-28T02:13:34;98530.22;;;-1.01;64.11
2841;BME280;53423;49.224;12.074;2023-02-28T02:16:20;98536.50;;;-1.07;63.55
2841;BME280;53423;49.224;12.074;2023-02-28T02:18:53;98526.66;;;-1.16;63.83
2841;BME280;53423;49.224;12.074;2023-02-28T02:21:40;98534.56;;;-1.39;64.80
2841;BME280;53423;49.224;12.074;2023-02-28T02:24:42;98528.59;;;-1.21;64.69
2841;BME280;53423;49.224;12.074;2023-02-28T02:27:37;98537.22;;;-1.22;64.51
2841;BME280;53423;49.224;12.074;2023-02-28T02:36:30;98528.72;;;-1.24;64.64
2841;BME280;53423;49.224;12.074;2023-02-28T02:39:05;98528.88;;;-1.27;64.17
2841;BME280;53423;49.224;12.074;2023-02-28T02:41:38;98528.78;;;-1.26;64.77
2841;BME280;53423;49.224;12.074;2023-02-28T02:44:11;98532.63;;;-1.34;64.94
2841;BME280;53423;49.224;12.074;2023-02-28T02:46:44;98524.59;;;-1.45;65.33
2841;BME280;53423;49.224;12.074;2023-02-28T02:49:17;98531.75;;;-1.52;65.47
2841;BME280;53423;49.224;12.074;2023-02-28T02:51:49;98531.38;;;-1.63;65.61
2841;BME280;53423;49.224;12.074;2023-02-28T02:54:21;98532.00;;;-1.39;64.78
2841;BME280;53423;49.224;12.074;2023-02-28T02:56:51;98531.38;;;-1.26;64.04
2841;BME280;53423;49.224;12.074;2023-02-28T02:59:21;98532.00;;;-1.20;64.25
2841;BME280;53423;49.224;12.074;2023-02-28T03:01:52;98529.72;;;-1.27;64.52
2841;BME280;53423;49.224;12.074;2023-02-28T03:04:23;98535.63;;;-1.24;64.50
2841;BME280;53423;49.224;12.074;2023-02-28T03:06:54;98533.94;;;-1.26;64.29
2841;BME280;53423;49.224;12.074;2023-02-28T03:09:22;98531.31;;;-1.43;64.32
2841;BME280;53423;49.224;12.074;2023-02-28T03:11:51;98527.47;;;-1.34;64.78
2841;BME280;53423;49.224;12.074;2023-02-28T03:14:26;98533.69;;;-1.19;64.34
2841;BME280;53423;49.224;12.074;2023-02-28T03:17:07;98533.78;;;-1.23;63.95
2841;BME280;53423;49.224;12.074;2023-02-28T03:19:53;98540.25;;;-1.33;64.70
2841;BME280;53423;49.224;12.074;2023-02-28T03:22:39;98538.81;;;-1.38;64.62
2841;BME280;53423;49.224;12.074;2023-02-28T03:25:15;98525.81;;;-1.35;64.17
2841;BME280;53423;49.224;12.074;2023-02-28T03:27:54;98531.94;;;-1.38;64.83
2841;BME280;53423;49.224;12.074;2023-02-28T03:30:27;98526.31;;;-1.46;64.95
2841;BME280;53423;49.224;12.074;2023-02-28T03:32:59;98524.09;;;-1.35;64.87
2841;BME280;53423;49.224;12.074;2023-02-28T03:35:34;98533.94;;;-1.44;64.69
2841;BME280;53423;49.224;12.074;2023-02-28T03:38:07;98533.63;;;-1.37;64.37
2841;BME280;53423;49.224;12.074;2023-02-28T03:40:44;98540.41;;;-1.36;63.92
2841;BME280;53423;49.224;12.074;2023-02-28T03:43:18;98535.56;;;-1.60;64.63
2841;BME280;53423;49.224;12.074;2023-02-28T03:45:48;98542.16;;;-1.55;65.17
2841;BME280;53423;49.224;12.074;2023-02-28T03:48:20;98540.03;;;-1.84;65.41
2841;BME280;53423;49.224;12.074;2023-02-28T03:50:52;98538.69;;;-1.54;65.17
2841;BME280;53423;49.224;12.074;2023-02-28T03:53:25;98538.19;;;-1.62;65.06
2841;BME280;53423;49.224;12.074;2023-02-28T03:55:59;98540.88;;;-1.83;65.81
2841;BME280;53423;49.224;12.074;2023-02-28T03:58:32;98541.88;;;-1.67;64.98
2841;BME280;53423;49.224;12.074;2023-02-28T04:01:10;98541.41;;;-1.57;64.68
2841;BME280;53423;49.224;12.074;2023-02-28T04:03:40;98544.09;;;-1.60;64.90
2841;BME280;53423;49.224;12.074;2023-02-28T04:06:15;98537.69;;;-1.51;64.87
2841;BME280;53423;49.224;12.074;2023-02-28T04:08:45;98544.44;;;-1.67;64.63
2841;BME280;53423;49.224;12.074;2023-02-28T04:11:20;98545.13;;;-1.64;65.37
2841;BME280;53423;49.224;12.074;2023-02-28T04:13:49;98542.50;;;-1.62;65.37
2841;BME280;53423;49.224;12.074;2023-02-28T04:16:17;98549.66;;;-1.69;65.24
2841;BME280;53423;49.224;12.074;2023-02-28T04:19:00;98549.81;;;-1.53;65.15
2841;BME280;53423;49.224;12.074;2023-02-28T04:21:30;98544.78;;;-1.38;64.55
2841;BME280;53423;49.224;12.074;2023-02-28T04:24:00;98548.59;;;-1.28;64.38
2841;BME280;53423;49.224;12.074;2023-02-28T04:26:29;98551.13;;;-1.26;64.55
2841;BME280;53423;49.224;12.074;2023-02-28T04:28:57;98549.19;;;-1.40;64.71
2841;BME280;53423;49.224;12.074;2023-02-28T04:31:25;98547.94;;;-1.50;65.21
2841;BME280;53423;49.224;12.074;2023-02-28T04:33:54;98546.16;;;-1.49;65.23
2841;BME280;53423;49.224;12.074;2023-02-28T04:36:22;98548.66;;;-1.48;65.22
2841;BME280;53423;49.224;12.074;2023-02-28T04:38:50;98549.59;;;-1.49;64.63
2841;BME280;53423;49.224;12.074;2023-02-28T04:41:20;98548.81;;;-1.51;65.27
2841;BME280;53423;49.224;12.074;2023-02-28T04:43:50;98548.75;;;-1.31;64.02
2841;BME280;53423;49.224;12.074;2023-02-28T04:46:19;98546.88;;;-1.46;64.89
2841;BME280;53423;49.224;12.074;2023-02-28T04:48:47;98544.38;;;-1.47;64.57
2841;BME280;53423;49.224;12.074;2023-02-28T04:51:17;98549.13;;;-1.38;64.92
2841;BME280;53423;49.224;12.074;2023-02-28T04:53:46;98548.59;;;-1.46;64.49
2841;BME280;53423;49.224;12.074;2023-02-28T04:56:15;98546.53;;;-1.57;64.92
2841;BME280;53423;49.224;12.074;2023-02-28T04:58:45;98545.69;;;-1.39;64.49
2841;BME280;53423;49.224;12.074;2023-02-28T05:01:20;98552.22;;;-1.50;64.79
2841;BME280;53423;49.224;12.074;2023-02-28T05:03:48;98539.56;;;-1.36;64.74
2841;BME280;53423;49.224;12.074;2023-02-28T05:06:17;98547.06;;;-1.13;63.31
2841;BME280;53423;49.224;12.074;2023-02-28T05:08:45;98541.94;;;-1.32;63.55
2841;BME280;53423;49.224;12.074;2023-02-28T05:11:18;98542.50;;;-1.44;64.49
2841;BME280;53423;49.224;12.074;2023-02-28T05:13:48;98546.94;;;-1.47;64.41
2841;BME280;53423;49.224;12.074;2023-02-28T05:16:17;98553.63;;;-1.43;64.29
2841;BME280;53423;49.224;12.074;2023-02-28T05:18:45;98542.16;;;-1.55;64.78
2841;BME280;53423;49.224;12.074;2023-02-28T05:21:25;98553.41;;;-1.57;64.63
2841;BME280;53423;49.224;12.074;2023-02-28T05:23:54;98551.59;;;-1.55;64.51
2841;BME280;53423;49.224;12.074;2023-02-28T05:26:23;98556.31;;;-1.46;63.79
2841;BME280;53423;49.224;12.074;2023-02-28T05:28:53;98554.72;;;-1.49;63.85
2841;BME280;53423;49.224;12.074;2023-02-28T05:31:24;98551.16;;;-1.46;63.74
2841;BME280;53423;49.224;12.074;2023-02-28T05:33:52;98548.56;;;-1.26;63.20
2841;BME280;53423;49.224;12.074;2023-02-28T05:36:20;98552.00;;;-1.08;62.47
2841;BME280;53423;49.224;12.074;2023-02-28T05:38:49;98545.91;;;-0.89;61.35
2841;BME280;53423;49.224;12.074;2023-02-28T05:41:18;98554.56;;;-1.08;61.87
2841;BME280;53423;49.224;12.074;2023-02-28T05:43:47;98554.84;;;-0.96;61.79
2841;BME280;53423;49.224;12.074;2023-02-28T05:46:17;98560.50;;;-1.44;62.59
2841;BME280;53423;49.224;12.074;2023-02-28T05:48:46;98555.56;;;-1.48;63.29
2841;BME280;53423;49.224;12.074;2023-02-28T05:51:15;98548.03;;;-1.15;61.64
2841;BME280;53423;49.224;12.074;2023-02-28T05:53:43;98556.69;;;-1.35;62.56
2841;BME280;53423;49.224;12.074;2023-02-28T05:56:12;98570.41;;;-1.36;62.21
2841;BME280;53423;49.224;12.074;2023-02-28T05:58:40;98568.69;;;-1.17;61.99
2841;BME280;53423;49.224;12.074;2023-02-28T06:01:24;98565.56;;;-1.42;62.64
2841;BME280;53423;49.224;12.074;2023-02-28T06:03:53;98571.00;;;-1.30;61.86
2841;BME280;53423;49.224;12.074;2023-02-28T06:06:20;98574.75;;;-1.18;61.71
2841;BME280;53423;49.224;12.074;2023-02-28T06:08:48;98573.25;;;-1.05;60.83
2841;BME280;53423;49.224;12.074;2023-02-28T06:11:19;98582.78;;;-1.07;60.82
2841;BME280;53423;49.224;12.074;2023-02-28T06:13:47;98580.22;;;-1.07;60.58
2841;BME280;53423;49.224;12.074;2023-02-28T06:16:15;98583.84;;;-1.11;60.50
2841;BME280;53423;49.224;12.074;2023-02-28T06:18:45;98587.84;;;-1.05;60.46
2841;BME280;53423;49.224;12.074;2023-02-28T06:21:13;98585.25;;;-0.87;60.05
2841;BME280;53423;49.224;12.074;2023-02-28T06:23:40;98585.97;;;-0.83;59.08
2841;BME280;53423;49.224;12.074;2023-02-28T06:26:08;98580.47;;;-0.76;59.11
2841;BME280;53423;49.224;12.074;2023-02-28T06:28:36;98584.22;;;-0.47;58.46
2841;BME280;53423;49.224;12.074;2023-02-28T06:31:08;98581.41;;;-0.09;56.90
2841;BME280;53423;49.224;12.074;2023-02-28T06:33:37;98588.38;;;-0.11;56.96
2841;BME280;53423;49.224;12.074;2023-02-28T06:36:08;98579.94;;;0.53;55.39
2841;BME280;53423;49.224;12.074;2023-02-28T06:38:36;98587.03;;;0.96;53.26
2841;BME280;53423;49.224;12.074;2023-02-28T06:41:05;98588.75;;;0.64;54.20
2841;BME280;53423;49.224;12.074;2023-02-28T06:43:35;98595.09;;;0.59;53.49
2841;BME280;53423;49.224;12.074;2023-02-28T06:46:05;98596.31;;;0.52;54.22
2841;BME280;53423;49.224;12.074;2023-02-28T06:48:35;98592.50;;;0.74;53.82
2841;BME280;53423;49.224;12.074;2023-02-28T06:51:09;98601.19;;;1.20;52.46
2841;BME280;53423;49.224;12.074;2023-02-28T06:53:37;98599.53;;;1.80;51.42
2841;BME280;53423;49.224;12.074;2023-02-28T06:56:06;98604.91;;;2.34;48.55
2841;BME280;53423;49.224;12.074;2023-02-28T06:58:38;98595.66;;;3.01;46.78
2841;BME280;53423;49.224;12.074;2023-02-28T07:01:06;98595.00;;;3.64;46.72
2841;BME280;53423;49.224;12.074;2023-02-28T07:03:35;98601.41;;;3.32;46.72
2841;BME280;53423;49.224;12.074;2023-02-28T07:06:05;98597.56;;;4.54;43.54
2841;BME280;53423;49.224;12.074;2023-02-28T07:08:34;98599.34;;;5.51;41.28
2841;BME280;53423;49.224;12.074;2023-02-28T07:11:03;98601.28;;;5.60;40.74
2841;BME280;53423;49.224;12.074;2023-02-28T07:13:32;98596.63;;;6.45;38.62
2841;BME280;53423;49.224;12.074;2023-02-28T07:16:01;98589.38;;;7.37;38.00
2841;BME280;53423;49.224;12.074;2023-02-28T07:18:29;98589.31;;;7.59;35.62
2841;BME280;53423;49.224;12.074;2023-02-28T07:20:57;98599.00;;;7.25;36.86
2841;BME280;53423;49.224;12.074;2023-02-28T07:23:25;98605.25;;;7.34;36.46
2841;BME280;53423;49.224;12.074;2023-02-28T07:25:55;98597.28;;;7.46;36.67
2841;BME280;53423;49.224;12.074;2023-02-28T07:28:23;98598.41;;;7.65;35.69
2841;BME280;53423;49.224;12.074;2023-02-28T07:30:50;98606.81;;;6.92;37.73
2841;BME280;53423;49.224;12.074;2023-02-28T07:33:18;98604.22;;;6.92;38.29
2841;BME280;53423;49.224;12.074;2023-02-28T07:35:46;98606.34;;;6.76;37.88
2841;BME280;53423;49.224;12.074;2023-02-28T07:38:15;98598.66;;;6.75;36.33
2841;BME280;53423;49.224;12.074;2023-02-28T07:40:43;98608.66;;;6.24;38.03
2841;BME280;53423;49.224;12.074;2023-02-28T07:43:12;98600.38;;;8.04;35.59
2841;BME280;53423;49.224;12.074;2023-02-28T07:45:40;98600.19;;;6.99;38.18
2841;BME280;53423;49.224;12.074;2023-02-28T07:48:08;98599.13;;;8.30;34.87
2841;BME280;53423;49.224;12.074;2023-02-28T07:50:36;98597.88;;;8.85;33.51
2841;BME280;53423;49.224;12.074;2023-02-28T07:53:04;98588.00;;;9.28;32.61
2841;BME280;53423;49.224;12.074;2023-02-28T07:55:32;98592.84;;;9.32;32.05
2841;BME280;53423;49.224;12.074;2023-02-28T07:58:00;98594.06;;;7.54;35.39
2841;BME280;53423;49.224;12.074;2023-02-28T08:00:29;98598.28;;;7.12;37.64
2841;BME280;53423;49.224;12.074;2023-02-28T08:02:58;98605.41;;;6.88;36.12
2841;BME280;53423;49.224;12.074;2023-02-28T08:05:26;98613.72;;;6.14;38.40
2841;BME280;53423;49.224;12.074;2023-02-28T08:07:54;98608.81;;;5.52;39.47
2841;BME280;53423;49.224;12.074;2023-02-28T08:10:22;98606.09;;;5.77;40.15
2841;BME280;53423;49.224;12.074;2023-02-28T08:12:50;98608.06;;;5.73;38.63
2841;BME280;53423;49.224;12.074;2023-02-28T08:15:18;98599.94;;;6.47;37.67
2841;BME280;53423;49.224;12.074;2023-02-28T08:17:47;98599.31;;;5.87;37.90
2841;BME280;53423;49.224;12.074;2023-02-28T08:20:15;98600.63;;;5.92;38.00
2841;BME280;53423;49.224;12.074;2023-02-28T08:22:43;98602.72;;;5.64;38.13
2841;BME280;53423;49.224;12.074;2023-02-28T08:25:11;98604.88;;;5.70;38.69
2841;BME280;53423;49.224;12.074;2023-02-28T08:27:39;98603.13;;;6.05;39.00
2841;BME280;53423;49.224;12.074;2023-02-28T08:30:10;98601.22;;;5.25;39.84
2841;BME280;53423;49.224;12.074;2023-02-28T08:32:38;98613.50;;;5.47;39.28
2841;BME280;53423;49.224;12.074;2023-02-28T08:35:09;98611.13;;;5.67;38.59
2841;BME280;53423;49.224;12.074;2023-02-28T08:37:37;98611.06;;;6.38;37.20
2841;BME280;53423;49.224;12.074;2023-02-28T08:40:06;98614.03;;;6.56;36.91
2841;BME280;53423;49.224;12.074;2023-02-28T08:42:34;98622.66;;;5.99;38.02
2841;BME280;53423;49.224;12.074;2023-02-28T08:45:03;98620.88;;;6.00;37.60
2841;BME280;53423;49.224;12.074;2023-02-28T08:47:31;98622.03;;;6.30;37.69
2841;BME280;53423;49.224;12.074;2023-02-28T08:49:59;98618.31;;;6.11;37.99
2841;BME280;53423;49.224;12.074;2023-02-28T08:52:31;98617.38;;;6.91;37.53
2841;BME280;53423;49.224;12.074;2023-02-28T08:54:58;98616.53;;;7.01;35.79
2841;BME280;53423;49.224;12.074;2023-02-28T08:57:26;98626.84;;;6.92;37.39
2841;BME280;53423;49.224;12.074;2023-02-28T08:59:54;98623.91;;;6.28;37.59
2841;BME280;53423;49.224;12.074;2023-02-28T09:02:22;98618.78;;;6.84;36.86
2841;BME280;53423;49.224;12.074;2023-02-28T09:04:50;98620.94;;;6.90;36.61
2841;BME280;53423;49.224;12.074;2023-02-28T09:07:18;98620.56;;;7.16;37.14
2841;BME280;53423;49.224;12.074;2023-02-28T09:09:47;98620.44;;;6.96;36.92
2841;BME280;53423;49.224;12.074;2023-02-28T09:12:22;98620.31;;;6.97;35.89
2841;BME280;53423;49.224;12.074;2023-02-28T09:14:50;98616.78;;;6.87;36.74
2841;BME280;53423;49.224;12.074;2023-02-28T09:17:19;98614.53;;;6.72;37.02
2841;BME280;53423;49.224;12.074;2023-02-28T09:19:48;98610.97;;;6.73;36.58
2841;BME280;53423;49.224;12.074;2023-02-28T09:22:16;98617.50;;;7.00;36.75
2841;BME280;53423;49.224;12.074;2023-02-28T09:24:44;98606.28;;;7.53;35.29
2841;BME280;53423;49.224;12.074;2023-02-28T09:27:13;98596.94;;;7.40;34.91
2841;BME280;53423;49.224;12.074;2023-02-28T09:29:41;98609.31;;;6.83;36.38
2841;BME280;53423;49.224;12.074;2023-02-28T09:32:09;98605.75;;;6.73;37.70
2841;BME280;53423;49.224;12.074;2023-02-28T09:34:37;98605.38;;;7.21;36.83
2841;BME280;53423;49.224;12.074;2023-02-28T09:37:05;98602.94;;;7.09;37.30
2841;BME280;53423;49.224;12.074;2023-02-28T09:39:33;98609.88;;;7.19;36.78
2841;BME280;53423;49.224;12.074;2023-02-28T09:42:02;98610.13;;;7.81;35.18
2841;BME280;53423;49.224;12.074;2023-02-28T09:44:35;98603.75;;;8.77;34.04
2841;BME280;53423;49.224;12.074;2023-02-28T09:47:08;98600.16;;;7.32;35.73
2841;BME280;53423;49.224;12.074;2023-02-28T09:49:41;98613.63;;;8.12;34.73
2841;BME280;53423;49.224;12.074;2023-02-28T09:52:12;98606.63;;;8.12;34.58
2841;BME280;53423;49.224;12.074;2023-02-28T09:54:41;98615.91;;;7.42;36.62
2841;BME280;53423;49.224;12.074;2023-02-28T09:57:17;98613.59;;;8.23;35.00
2841;BME280;53423;49.224;12.074;2023-02-28T09:59:57;98614.78;;;8.30;34.51
2841;BME280;53423;49.224;12.074;2023-02-28T10:02:58;98613.97;;;7.87;36.28
2841;BME280;53423;49.224;12.074;2023-02-28T10:05:37;98614.75;;;7.67;35.74
2841;BME280;53423;49.224;12.074;2023-02-28T10:08:15;98619.41;;;7.95;34.90
2841;BME280;53423;49.224;12.074;2023-02-28T10:10:50;98630.75;;;6.97;37.56
2841;BME280;53423;49.224;12.074;2023-02-28T10:13:24;98623.41;;;7.35;36.48
2841;BME280;53423;49.224;12.074;2023-02-28T10:15:58;98629.81;;;7.20;37.29
2841;BME280;53423;49.224;12.074;2023-02-28T10:18:34;98620.00;;;7.67;36.40
2841;BME280;53423;49.224;12.074;2023-02-28T10:21:05;98622.19;;;8.75;35.01
2841;BME280;53423;49.224;12.074;2023-02-28T10:23:37;98620.56;;;8.33;34.59
2841;BME280;53423;49.224;12.074;2023-02-28T10:26:11;98626.25;;;7.32;37.15
2841;BME280;53423;49.224;12.074;2023-02-28T10:28:40;98627.09;;;6.89;38.46
2841;BME280;53423;49.224;12.074;2023-02-28T10:31:11;98636.69;;;6.99;37.55
2841;BME280;53423;49.224;12.074;2023-02-28T10:33:42;98629.91;;;7.30;37.07
2841;BME280;53423;49.224;12.074;2023-02-28T10:36:12;98626.72;;;7.37;36.54
2841;BME280;53423;49.224;12.074;2023-02-28T10:38:41;98623.81;;;7.94;35.61
2841;BME280;53423;49.224;12.074;2023-02-28T10:41:11;98629.78;;;7.31;36.87
2841;BME280;53423;49.224;12.074;2023-02-28T10:43:41;98625.50;;;7.41;37.16
2841;BME280;53423;49.224;12.074;2023-02-28T10:46:15;98624.91;;;7.38;36.97
2841;BME280;53423;49.224;12.074;2023-02-28T10:49:03;98617.63;;;7.64;37.14
2841;BME280;53423;49.224;12.074;2023-02-28T10:51:38;98625.41;;;7.32;37.75
2841;BME280;53423;49.224;12.074;2023-02-28T10:54:15;98616.97;;;7.39;38.68
2841;BME280;53423;49.224;12.074;2023-02-28T10:56:43;98616.88;;;8.04;35.73
2841;BME280;53423;49.224;12.074;2023-02-28T10:59:28;98621.53;;;7.58;38.62
2841;BME280;53423;49.224;12.074;2023-02-28T11:02:00;98626.50;;;7.18;37.63
2841;BME280;53423;49.224;12.074;2023-02-28T11:04:37;98623.63;;;7.75;37.52
2841;BME280;53423;49.224;12.074;2023-02-28T11:07:16;98615.50;;;8.62;35.65
2841;BME280;53423;49.224;12.074;2023-02-28T11:09:50;98622.75;;;8.79;35.04
2841;BME280;53423;49.224;12.074;2023-02-28T11:12:22;98628.66;;;7.99;35.67
2841;BME280;53423;49.224;12.074;2023-02-28T11:14:53;98614.75;;;7.24;37.84
2841;BME280;53423;49.224;12.074;2023-02-28T11:17:28;98627.88;;;7.22;38.48
2841;BME280;53423;49.224;12.074;2023-02-28T11:19:59;98613.19;;;8.07;36.63
2841;BME280;53423;49.224;12.074;2023-02-28T11:22:32;98603.09;;;8.54;35.35
2841;BME280;53423;49.224;12.074;2023-02-28T11:25:07;98607.47;;;8.74;35.29
2841;BME280;53423;49.224;12.074;2023-02-28T11:27:46;98601.03;;;8.78;36.38
2841;BME280;53423;49.224;12.074;2023-02-28T11:30:26;98604.91;;;8.02;37.26
2841;BME280;53423;49.224;12.074;2023-02-28T11:32:56;98599.66;;;8.33;36.33
2841;BME280;53423;49.224;12.074;2023-02-28T11:35:27;98602.94;;;8.26;35.84
2841;BME280;53423;49.224;12.074;2023-02-28T11:37:57;98605.00;;;7.80;36.96
2841;BME280;53423;49.224;12.074;2023-02-28T11:40:31;98603.19;;;7.48;38.00
2841;BME280;53423;49.224;12.074;2023-02-28T11:43:10;98602.94;;;7.94;37.55
2841;BME280;53423;49.224;12.074;2023-02-28T11:45:46;98588.16;;;8.96;35.11
2841;BME280;53423;49.224;12.074;2023-02-28T11:48:22;98588.31;;;8.95;33.85
2841;BME280;53423;49.224;12.074;2023-02-28T11:50:58;98589.28;;;8.94;35.13
2841;BME280;53423;49.224;12.074;2023-02-28T11:53:47;98588.13;;;8.87;34.25
2841;BME280;53423;49.224;12.074;2023-02-28T11:56:24;98580.56;;;9.33;33.62
2841;BME280;53423;49.224;12.074;2023-02-28T11:59:04;98585.75;;;10.11;32.62
2841;BME280;53423;49.224;12.074;2023-02-28T12:01:47;98584.28;;;10.64;30.09
2841;BME280;53423;49.224;12.074;2023-02-28T12:04:25;98579.53;;;11.41;29.16
2841;BME280;53423;49.224;12.074;2023-02-28T12:07:07;98593.16;;;10.53;30.84
2841;BME280;53423;49.224;12.074;2023-02-28T12:09:49;98591.34;;;10.54;30.63
2841;BME280;53423;49.224;12.074;2023-02-28T12:12:29;98601.69;;;10.65;32.79
2841;BME280;53423;49.224;12.074;2023-02-28T12:18:13;98595.78;;;10.90;29.58
2841;BME280;53423;49.224;12.074;2023-02-28T12:20:49;98588.28;;;11.32;28.57
2841;BME280;53423;49.224;12.074;2023-02-28T12:23:44;98588.53;;;10.74;32.05
2841;BME280;53423;49.224;12.074;2023-02-28T12:26:16;98578.72;;;11.58;28.96
2841;BME280;53423;49.224;12.074;2023-02-28T12:28:49;98578.00;;;11.20;31.80
2841;BME280;53423;49.224;12.074;2023-02-28T12:31:23;98594.25;;;9.74;31.54
2841;BME280;53423;49.224;12.074;2023-02-28T12:33:53;98586.69;;;9.52;32.94
2841;BME280;53423;49.224;12.074;2023-02-28T12:36:24;98578.88;;;10.75;31.39
2841;BME280;53423;49.224;12.074;2023-02-28T12:39:00;98575.53;;;10.36;29.63
2841;BME280;53423;49.224;12.074;2023-02-28T12:41:34;98574.81;;;9.58;30.72
2841;BME280;53423;49.224;12.074;2023-02-28T12:44:08;98579.44;;;9.26;31.76
2841;BME280;53423;49.224;12.074;2023-02-28T12:46:42;98580.28;;;8.15;33.45
2841;BME280;53423;49.224;12.074;2023-02-28T12:49:15;98568.56;;;8.51;34.00
2841;BME280;53423;49.224;12.074;2023-02-28T12:51:46;98583.75;;;8.05;34.19
2841;BME280;53423;49.224;12.074;2023-02-28T12:54:20;98558.41;;;8.57;33.81
2841;BME280;53423;49.224;12.074;2023-02-28T12:56:57;98555.66;;;8.89;33.28
2841;BME280;53423;49.224;12.074;2023-02-28T12:59:35;98556.28;;;8.72;34.88
2841;BME280;53423;49.224;12.074;2023-02-28T13:02:44;98562.38;;;8.52;33.46
2841;BME280;53423;49.224;12.074;2023-02-28T13:08:33;98561.53;;;8.10;34.75
2841;BME280;53423;49.224;12.074;2023-02-28T13:11:05;98556.50;;;8.18;35.89
2841;BME280;53423;49.224;12.074;2023-02-28T13:13:46;98556.72;;;8.06;35.82
2841;BME280;53423;49.224;12.074;2023-02-28T13:16:15;98550.53;;;7.86;35.05
2841;BME280;53423;49.224;12.074;2023-02-28T13:18:45;98558.22;;;8.08;35.81
2841;BME280;53423;49.224;12.074;2023-02-28T13:21:23;98549.19;;;8.12;36.93
2841;BME280;53423;49.224;12.074;2023-02-28T13:24:01;98548.44;;;8.21;36.55
2841;BME280;53423;49.224;12.074;2023-02-28T13:29:38;98552.69;;;8.22;36.72
2841;BME280;53423;49.224;12.074;2023-02-28T13:32:36;98561.28;;;8.13;36.01
2841;BME280;53423;49.224;12.074;2023-02-28T13:35:43;98563.50;;;7.77;36.25
2841;BME280;53423;49.224;12.074;2023-02-28T13:38:33;98561.75;;;8.39;36.63
2841;BME280;53423;49.224;12.074;2023-02-28T13:44:10;98555.94;;;8.56;35.33
2841;BME280;53423;49.224;12.074;2023-02-28T13:49:35;98562.16;;;7.82;35.79
2841;BME280;53423;49.224;12.074;2023-02-28T13:52:12;98561.75;;;7.98;36.63